Time;durP1;ratioP1;P1;durP2;ratioP2;P2;SDS_P1;SDS_P2;PMS_P1;PMS_P2;Temp;Humidity;BMP_temperature;BMP_pressure;BME280_temperature;BME280_humidity;BME280_pressure;Samples;Min_cycle;Max_cycle;Signal;HPM_P1;HPM_P2
2022/02/24 00:00:06;;;;;;;7.65;4.00;;;;;;;;;;5093587;28;20289;-66
2022/02/24 00:02:33;;;;;;;7.45;3.85;;;;;;;;;;5093963;28;20278;-66
2022/02/24 00:05:00;;;;;;;9.10;3.80;;;;;;;;;;5094398;28;20207;-66
2022/02/24 00:07:28;;;;;;;9.55;3.90;;;;;;;;;;5093985;28;20435;-66
2022/02/24 00:09:55;;;;;;;7.93;4.07;;;;;;;;;;5093523;28;20642;-66
2022/02/24 00:12:22;;;;;;;7.78;3.67;;;;;;;;;;5093761;28;20280;-66
2022/02/24 00:14:50;;;;;;;7.15;4.00;;;;;;;;;;5093364;28;20213;-66
2022/02/24 00:17:18;;;;;;;9.07;4.25;;;;;;;;;;5093513;28;20196;-66
2022/02/24 00:19:46;;;;;;;8.93;4.68;;;;;;;;;;5093938;28;20560;-67
2022/02/24 00:22:13;;;;;;;7.22;3.88;;;;;;;;;;5093822;28;20233;-66
2022/02/24 00:24:40;;;;;;;10.93;4.55;;;;;;;;;;5093928;28;20212;-66
2022/02/24 00:27:08;;;;;;;10.48;5.20;;;;;;;;;;5093745;28;20603;-65
2022/02/24 00:29:35;;;;;;;4.97;3.70;;;;;;;;;;5094153;28;20246;-66
2022/02/24 00:32:02;;;;;;;9.35;3.90;;;;;;;;;;5093271;28;20201;-66
2022/02/24 00:34:31;;;;;;;11.15;4.00;;;;;;;;;;5094034;28;20217;-66
2022/02/24 00:36:58;;;;;;;9.65;3.95;;;;;;;;;;5093656;28;20197;-66
2022/02/24 00:39:25;;;;;;;10.60;5.30;;;;;;;;;;5093917;28;20205;-66
2022/02/24 00:41:52;;;;;;;6.22;2.63;;;;;;;;;;5093736;28;20667;-66
2022/02/24 00:44:20;;;;;;;13.60;4.00;;;;;;;;;;5093467;28;20225;-67
2022/02/24 00:46:47;;;;;;;8.77;4.22;;;;;;;;;;5094006;28;20202;-66
2022/02/24 00:49:14;;;;;;;10.38;3.95;;;;;;;;;;5093099;28;20189;-66
2022/02/24 00:51:43;;;;;;;9.27;3.75;;;;;;;;;;5093106;28;20233;-66
2022/02/24 00:54:12;;;;;;;10.88;4.43;;;;;;;;;;5093004;28;20236;-66
2022/02/24 00:56:39;;;;;;;10.52;3.42;;;;;;;;;;5093719;28;20193;-67
2022/02/24 00:59:07;;;;;;;6.65;3.67;;;;;;;;;;5093472;28;20228;-66
2022/02/24 01:01:34;;;;;;;7.95;3.30;;;;;;;;;;5093743;28;20253;-66
2022/02/24 01:04:01;;;;;;;8.43;4.03;;;;;;;;;;5092953;28;20196;-65
2022/02/24 01:06:28;;;;;;;8.57;4.00;;;;;;;;;;5092959;28;20300;-65
2022/02/24 01:08:57;;;;;;;8.70;4.32;;;;;;;;;;5093524;28;20193;-68
2022/02/24 01:11:24;;;;;;;5.75;3.72;;;;;;;;;;5093175;28;20264;-66
2022/02/24 01:13:51;;;;;;;10.45;4.13;;;;;;;;;;5093208;28;20200;-66
2022/02/24 01:16:19;;;;;;;12.32;4.15;;;;;;;;;;5092882;28;20307;-66
2022/02/24 01:18:46;;;;;;;8.73;4.07;;;;;;;;;;5094320;28;20303;-67
2022/02/24 01:21:13;;;;;;;10.02;3.83;;;;;;;;;;5096503;28;20673;-66
2022/02/24 01:23:40;;;;;;;10.68;4.25;;;;;;;;;;5096829;28;20197;-66
2022/02/24 01:26:09;;;;;;;8.38;4.00;;;;;;;;;;5097132;28;20528;-67
2022/02/24 01:28:36;;;;;;;11.85;3.70;;;;;;;;;;5096441;28;20205;-67
2022/02/24 01:31:04;;;;;;;7.63;3.80;;;;;;;;;;5096667;28;20600;-67
2022/02/24 01:33:31;;;;;;;11.75;4.60;;;;;;;;;;5096630;28;20243;-67
2022/02/24 01:35:58;;;;;;;5.13;3.85;;;;;;;;;;5096715;28;20210;-66
2022/02/24 01:38:25;;;;;;;8.02;3.65;;;;;;;;;;5096558;28;20197;-66
2022/02/24 01:40:53;;;;;;;6.82;3.72;;;;;;;;;;5096403;28;20190;-66
2022/02/24 01:43:21;;;;;;;9.45;4.60;;;;;;;;;;5096857;28;20548;-66
2022/02/24 01:45:48;;;;;;;7.05;3.80;;;;;;;;;;5096047;28;20292;-67
2022/02/24 01:48:16;;;;;;;16.25;4.10;;;;;;;;;;5096351;28;20287;-66
2022/02/24 01:50:43;;;;;;;10.70;5.18;;;;;;;;;;5096255;28;20202;-67
2022/02/24 01:53:11;;;;;;;7.32;4.28;;;;;;;;;;5096241;28;20280;-67
2022/02/24 01:55:39;;;;;;;9.32;4.00;;;;;;;;;;5095843;28;20706;-66
2022/02/24 01:58:06;;;;;;;8.15;4.05;;;;;;;;;;5096739;28;20201;-66
2022/02/24 02:00:35;;;;;;;12.70;3.95;;;;;;;;;;5096602;28;20616;-66
2022/02/24 02:03:02;;;;;;;9.07;3.35;;;;;;;;;;5096047;28;20288;-66
2022/02/24 02:05:30;;;;;;;15.70;4.43;;;;;;;;;;5096054;28;20243;-66
2022/02/24 02:07:57;;;;;;;5.88;4.72;;;;;;;;;;5095989;28;20539;-67
2022/02/24 02:10:25;;;;;;;8.65;3.90;;;;;;;;;;5095466;28;20320;-66
2022/02/24 02:12:54;;;;;;;9.23;4.97;;;;;;;;;;5095648;28;20180;-66
2022/02/24 02:15:22;;;;;;;8.88;3.83;;;;;;;;;;5095742;28;20235;-66
2022/02/24 02:17:51;;;;;;;6.32;4.10;;;;;;;;;;5095828;28;20201;-67
2022/02/24 02:20:20;;;;;;;8.93;4.05;;;;;;;;;;5095831;28;20197;-67
2022/02/24 02:22:49;;;;;;;9.20;4.05;;;;;;;;;;5095342;28;20204;-66
2022/02/24 02:25:19;;;;;;;6.15;3.25;;;;;;;;;;5095321;28;20211;-66
2022/02/24 02:27:48;;;;;;;6.68;2.90;;;;;;;;;;5095600;28;20200;-66
2022/02/24 02:30:15;;;;;;;5.95;3.70;;;;;;;;;;5095522;28;20198;-66
2022/02/24 02:32:42;;;;;;;5.03;4.32;;;;;;;;;;5096089;28;20225;-66
2022/02/24 02:35:09;;;;;;;8.48;5.32;;;;;;;;;;5095133;28;20312;-67
2022/02/24 02:37:37;;;;;;;11.05;4.10;;;;;;;;;;5095089;28;20198;-66
2022/02/24 02:40:06;;;;;;;11.75;4.43;;;;;;;;;;5095311;28;20662;-65
2022/02/24 02:42:34;;;;;;;11.82;3.80;;;;;;;;;;5094924;28;20197;-66
2022/02/24 02:45:02;;;;;;;7.25;3.65;;;;;;;;;;5095637;28;20221;-66
2022/02/24 02:47:29;;;;;;;10.57;3.78;;;;;;;;;;5095160;28;20199;-66
2022/02/24 02:49:56;;;;;;;14.95;3.90;;;;;;;;;;5095899;28;20199;-66
2022/02/24 02:52:23;;;;;;;8.13;4.10;;;;;;;;;;5094738;28;20193;-66
2022/02/24 02:54:52;;;;;;;11.70;4.35;;;;;;;;;;5094944;28;20201;-67
2022/02/24 02:57:21;;;;;;;7.25;3.78;;;;;;;;;;5095490;28;20208;-67
2022/02/24 02:59:48;;;;;;;10.30;3.70;;;;;;;;;;5094605;28;20558;-66
2022/02/24 03:02:15;;;;;;;15.75;6.00;;;;;;;;;;5094860;28;20611;-67
2022/02/24 03:04:43;;;;;;;8.75;3.28;;;;;;;;;;5094866;28;20196;-66
2022/02/24 03:07:10;;;;;;;8.02;3.33;;;;;;;;;;5094864;28;20749;-66
2022/02/24 03:09:37;;;;;;;6.03;3.55;;;;;;;;;;5094412;28;20232;-66
2022/02/24 03:12:05;;;;;;;9.20;3.88;;;;;;;;;;5094892;28;20231;-66
2022/02/24 03:14:35;;;;;;;8.95;3.80;;;;;;;;;;5094678;28;20617;-66
2022/02/24 03:17:02;;;;;;;13.20;3.72;;;;;;;;;;5094775;28;20223;-66
2022/02/24 03:19:29;;;;;;;12.55;3.72;;;;;;;;;;5094596;28;20229;-66
2022/02/24 03:21:56;;;;;;;6.13;3.33;;;;;;;;;;5095064;28;20283;-66
2022/02/24 03:24:23;;;;;;;10.55;3.50;;;;;;;;;;5094163;28;20228;-66
2022/02/24 03:26:51;;;;;;;7.82;3.13;;;;;;;;;;5094427;28;20200;-67
2022/02/24 03:29:18;;;;;;;10.57;4.07;;;;;;;;;;5094701;28;20245;-66
2022/02/24 03:31:47;;;;;;;7.88;3.60;;;;;;;;;;5094000;28;20193;-67
2022/02/24 03:34:14;;;;;;;11.55;4.32;;;;;;;;;;5094031;28;20197;-67
2022/02/24 03:36:41;;;;;;;8.55;3.33;;;;;;;;;;5093905;28;20213;-65
2022/02/24 03:39:09;;;;;;;11.88;3.17;;;;;;;;;;5093928;28;20283;-66
2022/02/24 03:41:36;;;;;;;7.90;3.65;;;;;;;;;;5093878;28;20241;-67
2022/02/24 03:44:03;;;;;;;6.85;3.40;;;;;;;;;;5094621;28;20229;-66
2022/02/24 03:46:30;;;;;;;8.23;3.65;;;;;;;;;;5093798;28;20203;-66
2022/02/24 03:48:59;;;;;;;10.88;4.15;;;;;;;;;;5094376;28;20283;-66
2022/02/24 03:51:26;;;;;;;5.40;3.70;;;;;;;;;;5094011;28;20224;-65
2022/02/24 03:53:53;;;;;;;8.23;3.42;;;;;;;;;;5094043;28;20196;-66
2022/02/24 03:56:20;;;;;;;3.33;2.85;;;;;;;;;;5093917;28;20652;-66
2022/02/24 03:58:48;;;;;;;14.85;4.03;;;;;;;;;;5093647;28;20196;-65
2022/02/24 04:01:15;;;;;;;8.35;3.70;;;;;;;;;;5093663;28;20209;-66
2022/02/24 04:03:42;;;;;;;8.82;4.15;;;;;;;;;;5094189;28;20283;-66
2022/02/24 04:06:11;;;;;;;8.30;4.25;;;;;;;;;;5093528;28;20647;-66
2022/02/24 04:08:39;;;;;;;8.98;3.80;;;;;;;;;;5093834;28;20204;-66
2022/02/24 04:11:06;;;;;;;8.45;3.58;;;;;;;;;;5093454;28;20278;-66
2022/02/24 04:13:33;;;;;;;6.78;3.08;;;;;;;;;;5094018;28;20249;-66
2022/02/24 04:16:00;;;;;;;6.22;3.97;;;;;;;;;;5093723;28;20314;-66
2022/02/24 04:18:28;;;;;;;10.80;4.35;;;;;;;;;;5093765;28;20225;-66
2022/02/24 04:20:55;;;;;;;8.43;4.38;;;;;;;;;;5094176;28;20234;-66
2022/02/24 04:23:23;;;;;;;12.73;4.88;;;;;;;;;;5093371;28;20615;-66
2022/02/24 04:25:51;;;;;;;8.68;3.63;;;;;;;;;;5093722;28;20306;-66
2022/02/24 04:28:18;;;;;;;12.18;4.57;;;;;;;;;;5094352;28;20189;-66
2022/02/24 04:30:45;;;;;;;11.60;4.10;;;;;;;;;;5093645;28;20193;-67
2022/02/24 04:33:12;;;;;;;8.75;4.57;;;;;;;;;;5094339;28;20203;-66
2022/02/24 04:35:40;;;;;;;7.55;3.97;;;;;;;;;;5093466;28;20223;-67
2022/02/24 04:38:07;;;;;;;10.88;3.78;;;;;;;;;;5093229;28;20200;-67
2022/02/24 04:40:36;;;;;;;8.13;4.00;;;;;;;;;;5093632;28;20278;-66
2022/02/24 04:43:03;;;;;;;12.75;4.40;;;;;;;;;;5093439;28;20212;-66
2022/02/24 04:45:31;;;;;;;9.68;4.20;;;;;;;;;;5093500;28;20206;-66
2022/02/24 04:47:58;;;;;;;11.25;4.30;;;;;;;;;;5093148;28;20198;-66
2022/02/24 04:50:25;;;;;;;13.77;4.93;;;;;;;;;;5093489;28;20280;-65
2022/02/24 04:52:52;;;;;;;9.48;3.65;;;;;;;;;;5093482;28;20664;-65
2022/02/24 04:55:19;;;;;;;13.25;4.35;;;;;;;;;;5096989;28;20193;-66
2022/02/24 04:57:48;;;;;;;7.60;3.80;;;;;;;;;;5096959;28;20647;-67
2022/02/24 05:00:16;;;;;;;8.20;4.30;;;;;;;;;;5097730;28;20599;-66
2022/02/24 05:02:43;;;;;;;9.02;4.70;;;;;;;;;;5096961;28;20197;-66
2022/02/24 05:05:11;;;;;;;8.80;4.70;;;;;;;;;;5097163;28;20209;-68
2022/02/24 05:07:38;;;;;;;10.00;3.83;;;;;;;;;;5097130;28;20288;-66
2022/02/24 05:10:07;;;;;;;8.95;3.97;;;;;;;;;;5097023;28;20225;-67
2022/02/24 05:12:34;;;;;;;7.22;4.18;;;;;;;;;;5097112;28;20260;-66
2022/02/24 05:15:02;;;;;;;9.32;4.53;;;;;;;;;;5096926;28;20193;-66
2022/02/24 05:17:29;;;;;;;7.18;3.50;;;;;;;;;;5096554;28;20225;-66
2022/02/24 05:19:57;;;;;;;12.60;4.30;;;;;;;;;;5094780;28;20228;-66
2022/02/24 05:22:24;;;;;;;12.13;4.68;;;;;;;;;;5076238;28;20198;-67
2022/02/24 05:24:52;;;;;;;13.98;4.20;;;;;;;;;;5076220;28;20233;-67
2022/02/24 05:27:19;;;;;;;10.20;4.25;;;;;;;;;;5076169;28;20198;-67
2022/02/24 05:29:46;;;;;;;12.35;4.20;;;;;;;;;;5076710;28;20197;-66
2022/02/24 05:32:15;;;;;;;9.55;3.60;;;;;;;;;;5076135;28;20193;-67
2022/02/24 05:34:42;;;;;;;8.95;3.70;;;;;;;;;;5076439;28;20287;-66
2022/02/24 05:37:09;;;;;;;9.60;4.20;;;;;;;;;;5076056;28;20223;-66
2022/02/24 05:39:37;;;;;;;8.32;4.03;;;;;;;;;;5075958;28;20690;-67
2022/02/24 05:42:04;;;;;;;8.70;4.05;;;;;;;;;;5076449;28;20635;-67
2022/02/24 05:44:31;;;;;;;5.10;3.47;;;;;;;;;;5076406;28;20197;-67
2022/02/24 05:46:58;;;;;;;12.40;3.90;;;;;;;;;;5075933;28;20288;-67
2022/02/24 05:49:27;;;;;;;9.48;3.97;;;;;;;;;;5075713;28;20645;-68
2022/02/24 05:51:54;;;;;;;7.30;3.90;;;;;;;;;;5094021;28;20654;-67
2022/02/24 05:54:21;;;;;;;6.63;3.72;;;;;;;;;;5095938;28;20205;-67
2022/02/24 05:56:48;;;;;;;9.18;4.70;;;;;;;;;;5096554;28;20219;-67
2022/02/24 05:59:16;;;;;;;16.52;4.57;;;;;;;;;;5096518;28;20193;-66
2022/02/24 06:01:43;;;;;;;10.45;3.90;;;;;;;;;;5095735;28;20204;-68
2022/02/24 06:04:10;;;;;;;9.35;3.33;;;;;;;;;;5096029;28;20193;-66
2022/02/24 06:06:39;;;;;;;7.38;3.90;;;;;;;;;;5095594;28;20201;-67
2022/02/24 06:09:06;;;;;;;9.05;3.70;;;;;;;;;;5095575;28;20245;-67
2022/02/24 06:11:34;;;;;;;14.45;4.95;;;;;;;;;;5096044;28;20590;-67
2022/02/24 06:14:02;;;;;;;6.95;3.92;;;;;;;;;;5095951;28;20201;-67
2022/02/24 06:16:29;;;;;;;12.75;3.72;;;;;;;;;;5096289;28;20677;-67
2022/02/24 06:18:56;;;;;;;10.45;3.83;;;;;;;;;;5095488;28;20238;-67
2022/02/24 06:21:23;;;;;;;9.88;5.50;;;;;;;;;;5095299;28;20198;-67
2022/02/24 06:23:52;;;;;;;7.20;4.28;;;;;;;;;;5096042;28;20193;-67
2022/02/24 06:26:19;;;;;;;5.47;3.95;;;;;;;;;;5095917;28;20197;-66
2022/02/24 06:28:46;;;;;;;6.45;3.30;;;;;;;;;;5095677;28;20282;-68
2022/02/24 06:31:14;;;;;;;7.60;3.20;;;;;;;;;;5095062;28;20194;-67
2022/02/24 06:33:41;;;;;;;18.85;4.70;;;;;;;;;;5095694;28;20196;-68
2022/02/24 06:36:08;;;;;;;13.27;4.05;;;;;;;;;;5095310;28;20223;-67
2022/02/24 06:38:35;;;;;;;9.90;3.92;;;;;;;;;;5095058;28;20197;-67
2022/02/24 06:41:04;;;;;;;9.07;4.53;;;;;;;;;;5095041;28;20200;-68
2022/02/24 06:43:31;;;;;;;9.32;4.50;;;;;;;;;;5094916;28;20234;-72
2022/02/24 06:45:58;;;;;;;14.40;4.35;;;;;;;;;;5094916;28;20284;-67
2022/02/24 06:48:27;;;;;;;12.27;4.63;;;;;;;;;;5095084;28;20280;-68
2022/02/24 06:50:54;;;;;;;10.93;4.05;;;;;;;;;;5095034;28;20207;-67
2022/02/24 06:53:22;;;;;;;14.90;4.20;;;;;;;;;;5094737;28;20666;-67
2022/02/24 06:55:49;;;;;;;10.27;4.68;;;;;;;;;;5094982;28;20199;-66
2022/02/24 06:58:17;;;;;;;12.18;3.72;;;;;;;;;;5095397;28;20550;-67
2022/02/24 07:00:45;;;;;;;11.20;5.03;;;;;;;;;;5094883;28;20251;-67
2022/02/24 07:03:12;;;;;;;12.10;5.15;;;;;;;;;;5094898;28;20196;-68
2022/02/24 07:05:39;;;;;;;9.48;5.60;;;;;;;;;;5095192;28;20275;-67
2022/02/24 07:08:06;;;;;;;19.92;6.90;;;;;;;;;;5094814;28;20207;-68
2022/02/24 07:10:34;;;;;;;8.27;4.70;;;;;;;;;;5094544;28;20257;-66
2022/02/24 07:13:01;;;;;;;10.57;3.70;;;;;;;;;;5094726;28;20193;-67
2022/02/24 07:15:30;;;;;;;10.20;3.85;;;;;;;;;;5094295;28;20255;-66
2022/02/24 07:17:57;;;;;;;7.22;3.15;;;;;;;;;;5093962;28;20840;-67
2022/02/24 07:20:24;;;;;;;6.45;3.58;;;;;;;;;;5095092;28;20302;-67
2022/02/24 07:22:52;;;;;;;10.45;3.63;;;;;;;;;;5094304;28;20292;-67
2022/02/24 07:25:19;;;;;;;10.52;3.28;;;;;;;;;;5095007;28;20283;-66
2022/02/24 07:27:49;;;;;;;10.32;3.95;;;;;;;;;;5094051;28;20235;-67
2022/02/24 07:30:16;;;;;;;10.90;3.45;;;;;;;;;;5094364;28;20282;-67
2022/02/24 07:32:45;;;;;;;7.95;3.72;;;;;;;;;;5093982;28;20199;-67
2022/02/24 07:35:12;;;;;;;13.13;4.47;;;;;;;;;;5093959;28;20649;-66
2022/02/24 07:37:39;;;;;;;15.63;4.80;;;;;;;;;;5093831;28;20214;-67
2022/02/24 07:40:07;;;;;;;8.27;4.57;;;;;;;;;;5093870;28;20228;-66
2022/02/24 07:42:35;;;;;;;13.68;4.95;;;;;;;;;;5094195;28;20618;-67
2022/02/24 07:45:03;;;;;;;11.00;4.10;;;;;;;;;;5094142;28;20626;-67
2022/02/24 07:47:30;;;;;;;6.47;4.57;;;;;;;;;;5093818;28;20247;-67
2022/02/24 07:49:59;;;;;;;13.13;6.20;;;;;;;;;;5094840;28;20280;-67
2022/02/24 07:52:26;;;;;;;7.50;4.07;;;;;;;;;;5093751;28;20219;-66
2022/02/24 07:54:54;;;;;;;10.23;4.25;;;;;;;;;;5093997;28;20208;-68
2022/02/24 07:57:22;;;;;;;10.85;4.13;;;;;;;;;;5093882;28;20566;-67
2022/02/24 07:59:50;;;;;;;14.35;4.25;;;;;;;;;;5094657;28;20609;-67
2022/02/24 08:02:17;;;;;;;9.48;4.90;;;;;;;;;;5094500;28;20231;-67
2022/02/24 08:04:45;;;;;;;9.90;5.15;;;;;;;;;;5093579;28;20750;-67
2022/02/24 08:07:13;;;;;;;9.50;4.90;;;;;;;;;;5093854;28;20193;-67
2022/02/24 08:09:40;;;;;;;12.13;5.10;;;;;;;;;;5093488;28;20200;-67
2022/02/24 08:14:53;;;;;;;9.52;3.78;;;;;;;;;;5093669;28;20219;-68
2022/02/24 08:17:21;;;;;;;9.23;4.72;;;;;;;;;;5093320;28;20231;-67
2022/02/24 08:19:49;;;;;;;6.43;3.58;;;;;;;;;;5093716;28;20646;-67
2022/02/24 08:22:18;;;;;;;8.30;3.80;;;;;;;;;;5093325;28;20655;-67
2022/02/24 08:24:45;;;;;;;8.82;4.88;;;;;;;;;;5093362;28;20194;-67
2022/02/24 08:27:12;;;;;;;9.65;4.72;;;;;;;;;;5094063;28;20251;-67
2022/02/24 08:29:39;;;;;;;12.70;5.40;;;;;;;;;;5098221;28;20227;-67
2022/02/24 08:32:07;;;;;;;6.23;4.40;;;;;;;;;;5097442;28;20443;-68
2022/02/24 08:34:34;;;;;;;9.23;3.87;;;;;;;;;;5097722;28;20569;-67
2022/02/24 08:37:01;;;;;;;6.55;4.50;;;;;;;;;;5097762;28;20482;-67
2022/02/24 08:39:30;;;;;;;9.27;3.97;;;;;;;;;;5097906;28;20193;-67
2022/02/24 08:41:57;;;;;;;11.77;4.00;;;;;;;;;;5097220;28;20205;-67
2022/02/24 08:44:24;;;;;;;8.25;3.90;;;;;;;;;;5097211;28;20236;-67
2022/02/24 08:46:52;;;;;;;7.93;2.63;;;;;;;;;;5097312;28;20202;-68
2022/02/24 08:49:19;;;;;;;14.45;4.30;;;;;;;;;;5097426;28;20225;-68
2022/02/24 08:51:46;;;;;;;5.07;2.50;;;;;;;;;;5096950;28;20250;-67
2022/02/24 08:54:14;;;;;;;7.65;3.00;;;;;;;;;;5097521;28;20620;-67
2022/02/24 08:56:44;;;;;;;4.38;2.80;;;;;;;;;;5097213;28;20190;-67
2022/02/24 08:59:12;;;;;;;6.53;2.63;;;;;;;;;;5097870;28;20223;-67
2022/02/24 09:01:39;;;;;;;9.13;3.30;;;;;;;;;;5096848;28;20203;-66
2022/02/24 09:04:06;;;;;;;8.80;3.40;;;;;;;;;;5097196;28;20474;-67
2022/02/24 09:06:33;;;;;;;8.13;3.00;;;;;;;;;;5096784;28;20526;-67
2022/02/24 09:09:01;;;;;;;6.75;2.42;;;;;;;;;;5096797;28;20497;-68
2022/02/24 09:11:28;;;;;;;6.72;3.75;;;;;;;;;;5097568;28;20226;-68
2022/02/24 09:13:57;;;;;;;7.15;2.45;;;;;;;;;;5097009;28;20190;-67
2022/02/24 09:16:25;;;;;;;4.53;2.65;;;;;;;;;;5096900;28;20250;-67
2022/02/24 09:18:53;;;;;;;6.40;2.45;;;;;;;;;;5096889;28;20224;-68
2022/02/24 09:21:20;;;;;;;9.23;3.72;;;;;;;;;;5096479;28;20198;-68
2022/02/24 09:23:47;;;;;;;6.57;2.75;;;;;;;;;;5096564;28;20661;-68
2022/02/24 09:26:14;;;;;;;7.50;2.97;;;;;;;;;;5097162;28;20544;-68
2022/02/24 09:28:42;;;;;;;8.05;3.25;;;;;;;;;;5096383;28;20287;-67
2022/02/24 09:31:10;;;;;;;5.18;2.35;;;;;;;;;;5096344;28;20228;-68
2022/02/24 09:33:38;;;;;;;3.92;2.15;;;;;;;;;;5095743;28;20699;-68
2022/02/24 09:36:05;;;;;;;8.77;2.65;;;;;;;;;;5096651;28;20246;-67
2022/02/24 09:38:32;;;;;;;8.80;2.78;;;;;;;;;;5095835;28;20249;-67
2022/02/24 09:41:00;;;;;;;5.78;2.80;;;;;;;;;;5096539;28;20280;-67
2022/02/24 09:43:28;;;;;;;3.30;2.50;;;;;;;;;;5096383;28;20280;-67
2022/02/24 09:45:58;;;;;;;3.08;2.25;;;;;;;;;;5095984;28;20197;-66
2022/02/24 09:48:31;;;;;;;5.63;2.50;;;;;;;;;;5096402;28;20285;-68
2022/02/24 09:50:58;;;;;;;6.53;2.78;;;;;;;;;;5096755;28;20571;-67
2022/02/24 09:53:27;;;;;;;6.67;2.03;;;;;;;;;;5096218;28;20200;-67
2022/02/24 09:55:55;;;;;;;6.78;2.58;;;;;;;;;;5095874;28;20443;-67
2022/02/24 09:58:23;;;;;;;7.32;2.30;;;;;;;;;;5095763;28;20217;-67
2022/02/24 10:00:50;;;;;;;4.70;2.80;;;;;;;;;;5095707;28;20651;-67
2022/02/24 10:03:29;;;;;;;6.30;2.27;;;;;;;;;;5095680;28;20471;-67
2022/02/24 10:05:56;;;;;;;6.80;2.23;;;;;;;;;;5095642;28;20447;-68
2022/02/24 10:08:28;;;;;;;5.75;2.35;;;;;;;;;;5095862;28;20443;-68
2022/02/24 10:10:57;;;;;;;4.65;2.15;;;;;;;;;;5095544;28;20318;-67
2022/02/24 10:13:25;;;;;;;5.43;2.50;;;;;;;;;;5095739;28;20201;-67
2022/02/24 10:15:56;;;;;;;8.07;3.40;;;;;;;;;;5095789;28;20523;-67
2022/02/24 10:18:25;;;;;;;6.75;2.33;;;;;;;;;;5095297;28;20259;-68
2022/02/24 10:20:55;;;;;;;7.10;2.30;;;;;;;;;;5095346;28;20195;-68
2022/02/24 10:23:23;;;;;;;6.17;3.70;;;;;;;;;;5095637;28;20182;-69
2022/02/24 10:25:52;;;;;;;5.87;2.57;;;;;;;;;;5095390;28;20446;-67
2022/02/24 10:28:30;;;;;;;8.07;2.43;;;;;;;;;;5095459;28;20448;-69
2022/02/24 10:30:57;;;;;;;8.50;2.90;;;;;;;;;;5095561;28;20423;-69
2022/02/24 10:33:28;;;;;;;5.30;2.27;;;;;;;;;;5095235;28;20473;-69
2022/02/24 10:35:57;;;;;;;5.13;3.40;;;;;;;;;;5095094;28;20437;-68
2022/02/24 10:38:30;;;;;;;5.50;2.80;;;;;;;;;;5095102;28;20490;-68
2022/02/24 10:40:57;;;;;;;6.00;2.40;;;;;;;;;;5094818;28;20439;-68
2022/02/24 10:43:26;;;;;;;7.30;2.27;;;;;;;;;;5094780;28;20451;-68
2022/02/24 10:46:00;;;;;;;5.53;2.27;;;;;;;;;;5095133;28;20435;-68
2022/02/24 10:48:28;;;;;;;6.70;2.50;;;;;;;;;;5094707;28;20443;-67
2022/02/24 10:50:57;;;;;;;2.60;2.20;;;;;;;;;;5093639;28;20475;-67
2022/02/24 10:53:26;;;;;;;5.10;2.50;;;;;;;;;;5095382;28;20581;-67
2022/02/24 10:55:54;;;;;;;3.63;2.27;;;;;;;;;;5095014;28;20493;-67
2022/02/24 10:58:21;;;;;;;3.87;2.00;;;;;;;;;;5094735;28;20829;-67
2022/02/24 11:00:49;;;;;;;3.70;2.40;;;;;;;;;;5094758;28;20443;-67
2022/02/24 11:03:16;;;;;;;8.80;3.27;;;;;;;;;;5094714;28;20471;-67
2022/02/24 11:05:44;;;;;;;10.10;2.20;;;;;;;;;;5094716;28;20866;-67
2022/02/24 11:08:13;;;;;;;5.13;2.00;;;;;;;;;;5094695;28;20523;-68
2022/02/24 11:10:41;;;;;;;2.63;1.87;;;;;;;;;;5094233;28;20479;-67
2022/02/24 11:13:08;;;;;;;6.63;2.40;;;;;;;;;;5094604;28;20439;-67
2022/02/24 11:15:35;;;;;;;14.07;2.77;;;;;;;;;;5094463;28;20444;-67
2022/02/24 11:18:03;;;;;;;6.10;2.17;;;;;;;;;;5094212;28;20495;-67
2022/02/24 11:20:30;;;;;;;5.80;2.50;;;;;;;;;;5094509;28;20475;-67
2022/02/24 11:22:57;;;;;;;3.85;2.17;;;;;;;;;;5094421;28;20508;-68
2022/02/24 11:25:28;;;;;;;6.57;3.47;;;;;;;;;;5094420;28;20205;-68
2022/02/24 11:28:03;;;;;;;4.03;2.50;;;;;;;;;;5094395;28;20280;-67
2022/02/24 11:30:31;;;;;;;9.60;3.17;;;;;;;;;;5094870;28;20267;-68
2022/02/24 11:32:59;;;;;;;3.75;2.00;;;;;;;;;;5094219;28;20445;-67
2022/02/24 11:35:27;;;;;;;5.17;2.10;;;;;;;;;;5094275;28;20225;-68
2022/02/24 11:37:56;;;;;;;5.30;1.87;;;;;;;;;;5093817;28;20486;-68
2022/02/24 11:40:24;;;;;;;3.87;2.03;;;;;;;;;;5094029;28;20446;-67
2022/02/24 11:43:05;;;;;;;4.03;2.90;;;;;;;;;;5093803;28;20444;-68
2022/02/24 11:45:35;;;;;;;5.40;2.53;;;;;;;;;;5094372;28;20447;-67
2022/02/24 11:48:03;;;;;;;4.20;2.63;;;;;;;;;;5094202;28;20446;-67
2022/02/24 11:50:38;;;;;;;4.47;2.20;;;;;;;;;;5094415;28;20497;-66
2022/02/24 11:53:06;;;;;;;5.33;2.63;;;;;;;;;;5093572;28;20445;-68
2022/02/24 11:55:47;;;;;;;4.20;2.57;;;;;;;;;;5094255;28;20427;-67
2022/02/24 11:58:44;;;;;;;4.57;2.27;;;;;;;;;;5094179;28;20463;-68
2022/02/24 12:01:17;;;;;;;5.30;2.57;;;;;;;;;;5094055;28;20792;-68
2022/02/24 12:03:55;;;;;;;5.23;2.53;;;;;;;;;;5094075;28;20462;-68
2022/02/24 12:06:23;;;;;;;7.17;3.00;;;;;;;;;;5094571;28;20497;-68
2022/02/24 12:09:02;;;;;;;5.97;2.90;;;;;;;;;;5094219;28;20835;-66
2022/02/24 12:11:30;;;;;;;4.03;2.30;;;;;;;;;;5093858;28;20225;-68
2022/02/24 12:13:59;;;;;;;4.22;2.63;;;;;;;;;;5093864;28;20448;-67
2022/02/24 12:16:27;;;;;;;6.10;2.60;;;;;;;;;;5094210;28;20250;-67
2022/02/24 12:18:55;;;;;;;5.50;2.77;;;;;;;;;;5093133;28;20998;-67
2022/02/24 12:21:29;;;;;;;3.43;2.27;;;;;;;;;;5093261;28;20440;-68
2022/02/24 12:23:57;;;;;;;6.20;2.93;;;;;;;;;;5093866;28;20443;-68
2022/02/24 12:26:37;;;;;;;8.23;2.73;;;;;;;;;;5093285;28;20901;-68
2022/02/24 12:29:25;;;;;;;4.67;2.20;;;;;;;;;;5093405;28;20847;-67
2022/02/24 12:31:56;;;;;;;3.97;2.10;;;;;;;;;;5093228;28;20428;-67
2022/02/24 12:34:23;;;;;;;5.78;2.80;;;;;;;;;;5093586;28;20186;-67
2022/02/24 12:36:51;;;;;;;7.93;4.05;;;;;;;;;;5093529;28;20284;-67
2022/02/24 12:39:18;;;;;;;7.90;2.78;;;;;;;;;;5093464;28;20686;-68
2022/02/24 12:41:45;;;;;;;5.50;3.30;;;;;;;;;;5092952;28;20237;-67
2022/02/24 12:44:22;;;;;;;5.95;2.25;;;;;;;;;;5093641;28;20815;-67
2022/02/24 12:46:49;;;;;;;6.73;3.27;;;;;;;;;;5093073;28;20200;-67
2022/02/24 12:49:18;;;;;;;10.97;3.80;;;;;;;;;;5093435;28;20471;-68
2022/02/24 12:51:45;;;;;;;4.53;2.40;;;;;;;;;;5093413;28;20538;-68
2022/02/24 12:54:13;;;;;;;6.20;2.60;;;;;;;;;;5093038;28;20379;-67
2022/02/24 12:56:40;;;;;;;8.30;2.70;;;;;;;;;;5092803;28;20219;-69
2022/02/24 12:59:08;;;;;;;7.82;2.95;;;;;;;;;;5093241;28;20706;-77
2022/02/24 13:01:36;;;;;;;7.38;2.85;;;;;;;;;;5093330;28;20607;-68
2022/02/24 13:04:03;;;;;;;7.35;2.63;;;;;;;;;;5093295;28;20189;-68
2022/02/24 13:06:35;;;;;;;2.72;2.53;;;;;;;;;;5093138;28;20284;-70
2022/02/24 13:11:58;;;;;;;7.45;2.53;;;;;;;;;;5053110;28;20463;-67
2022/02/24 13:14:25;;;;;;;5.07;3.05;;;;;;;;;;5053696;28;20197;-68
2022/02/24 13:16:53;;;;;;;5.35;2.90;;;;;;;;;;5056630;28;20238;-68
2022/02/24 13:19:21;;;;;;;5.77;2.63;;;;;;;;;;5056574;28;20218;-68
2022/02/24 13:21:53;;;;;;;3.97;2.70;;;;;;;;;;5056314;28;21021;-69
2022/02/24 13:24:25;;;;;;;4.63;2.20;;;;;;;;;;5057419;28;20282;-67
2022/02/24 13:26:52;;;;;;;6.18;2.72;;;;;;;;;;5056613;28;20440;-68
2022/02/24 13:29:20;;;;;;;5.05;3.70;;;;;;;;;;5056455;28;20293;-68
2022/02/24 13:31:48;;;;;;;5.50;3.30;;;;;;;;;;5056172;28;20200;-68
2022/02/24 13:34:16;;;;;;;8.98;3.45;;;;;;;;;;5056053;28;20201;-67
2022/02/24 13:36:44;;;;;;;11.87;2.70;;;;;;;;;;5056598;28;20532;-66
2022/02/24 13:39:27;;;;;;;8.57;3.13;;;;;;;;;;5057139;28;20516;-67
2022/02/24 13:41:55;;;;;;;3.77;2.30;;;;;;;;;;5096706;28;20529;-68
2022/02/24 13:44:22;;;;;;;4.75;3.30;;;;;;;;;;5096735;28;20489;-67
2022/02/24 13:46:50;;;;;;;5.53;2.53;;;;;;;;;;5096049;28;20190;-68
2022/02/24 13:49:18;;;;;;;6.15;2.40;;;;;;;;;;5096341;28;20455;-68
2022/02/24 13:51:45;;;;;;;7.32;2.30;;;;;;;;;;5096786;28;20258;-67
2022/02/24 13:54:25;;;;;;;2.43;2.20;;;;;;;;;;5096269;28;20221;-68
2022/02/24 13:56:52;;;;;;;7.90;2.63;;;;;;;;;;5096428;28;20435;-67
2022/02/24 13:59:23;;;;;;;3.47;2.17;;;;;;;;;;5095619;28;20570;-68
2022/02/24 14:01:52;;;;;;;2.65;2.22;;;;;;;;;;5096301;28;20436;-67
2022/02/24 14:04:19;;;;;;;3.47;2.00;;;;;;;;;;5096038;28;20253;-68
2022/02/24 14:06:46;;;;;;;2.47;1.90;;;;;;;;;;5095647;28;20288;-68
2022/02/24 14:09:22;;;;;;;3.07;2.20;;;;;;;;;;5095409;28;20439;-68
2022/02/24 14:11:49;;;;;;;5.43;2.50;;;;;;;;;;5095945;28;20471;-68
2022/02/24 14:14:19;;;;;;;5.25;2.03;;;;;;;;;;5096171;28;20272;-68
2022/02/24 14:16:47;;;;;;;7.78;2.33;;;;;;;;;;5096037;28;20201;-67
2022/02/24 14:19:15;;;;;;;4.93;2.05;;;;;;;;;;5095356;28;20759;-68
2022/02/24 14:21:44;;;;;;;3.58;2.10;;;;;;;;;;5095403;28;20201;-68
2022/02/24 14:24:11;;;;;;;2.35;2.08;;;;;;;;;;5095583;28;20236;-67
2022/02/24 14:26:40;;;;;;;4.37;1.73;;;;;;;;;;5095413;28;20254;-67
2022/02/24 14:29:07;;;;;;;3.37;2.13;;;;;;;;;;5095400;28;20474;-68
2022/02/24 14:31:34;;;;;;;6.63;2.10;;;;;;;;;;5095550;28;20460;-69
2022/02/24 14:34:01;;;;;;;5.20;1.80;;;;;;;;;;5095110;28;20485;-69
2022/02/24 14:36:29;;;;;;;3.37;2.03;;;;;;;;;;5095054;28;20493;-67
2022/02/24 14:38:56;;;;;;;3.27;1.73;;;;;;;;;;5094852;28;21003;-67
2022/02/24 14:41:23;;;;;;;3.37;1.93;;;;;;;;;;5094845;28;20849;-68
2022/02/24 14:43:52;;;;;;;1.83;1.70;;;;;;;;;;5095372;28;20504;-68
2022/02/24 14:46:19;;;;;;;9.50;2.23;;;;;;;;;;5095254;28;20528;-68
2022/02/24 14:48:46;;;;;;;2.33;1.97;;;;;;;;;;5094812;28;20530;-67
2022/02/24 14:51:15;;;;;;;4.80;1.93;;;;;;;;;;5095056;28;20852;-67